sensor_id;sensor_type;location;lat;lon;timestamp;pressure;altitude;pressure_sealevel;temperature;humidity
50380;BME280;37474;59.468;18.040;2022-10-03T00:01:44;100937.50;;;6.04;100.00
50380;BME280;37474;59.468;18.040;2022-10-03T00:04:30;100932.97;;;5.84;100.00
50380;BME280;37474;59.468;18.040;2022-10-03T00:07:13;100939.03;;;5.84;100.00
50380;BME280;37474;59.468;18.040;2022-10-03T00:09:57;100944.84;;;5.93;100.00
50380;BME280;37474;59.468;18.040;2022-10-03T00:12:40;100935.97;;;5.98;100.00
50380;BME280;37474;59.468;18.040;2022-10-03T00:15:22;100934.28;;;5.97;100.00
50380;BME280;37474;59.468;18.040;2022-10-03T00:18:01;100929.81;;;6.01;100.00
50380;BME280;37474;59.468;18.040;2022-10-03T00:20:43;100939.25;;;6.03;100.00
50380;BME280;37474;59.468;18.040;2022-10-03T00:23:18;100935.69;;;6.06;100.00
50380;BME280;37474;59.468;18.040;2022-10-03T00:25:56;100942.13;;;5.96;100.00
50380;BME280;37474;59.468;18.040;2022-10-03T00:29:01;100933.19;;;6.03;100.00
50380;BME280;37474;59.468;18.040;2022-10-03T00:31:41;100940.03;;;6.05;100.00
50380;BME280;37474;59.468;18.040;2022-10-03T00:34:21;100940.38;;;5.96;100.00
50380;BME280;37474;59.468;18.040;2022-10-03T00:37:14;100939.69;;;5.91;100.00
50380;BME280;37474;59.468;18.040;2022-10-03T00:40:02;100944.78;;;5.94;100.00
50380;BME280;37474;59.468;18.040;2022-10-03T00:45:53;100947.72;;;6.08;100.00
50380;BME280;37474;59.468;18.040;2022-10-03T00:49:09;100936.91;;;5.96;100.00
50380;BME280;37474;59.468;18.040;2022-10-03T00:51:52;100953.25;;;5.99;100.00
50380;BME280;37474;59.468;18.040;2022-10-03T00:54:40;100959.03;;;6.07;100.00
50380;BME280;37474;59.468;18.040;2022-10-03T00:57:34;100953.16;;;6.02;100.00
50380;BME280;37474;59.468;18.040;2022-10-03T01:00:16;100955.19;;;5.94;100.00
50380;BME280;37474;59.468;18.040;2022-10-03T01:03:00;100959.41;;;5.97;100.00
50380;BME280;37474;59.468;18.040;2022-10-03T01:05:48;100967.72;;;5.81;100.00
50380;BME280;37474;59.468;18.040;2022-10-03T01:08:46;100969.69;;;5.75;100.00
50380;BME280;37474;59.468;18.040;2022-10-03T01:11:30;100967.97;;;5.74;100.00
50380;BME280;37474;59.468;18.040;2022-10-03T01:14:17;100978.06;;;5.83;100.00
50380;BME280;37474;59.468;18.040;2022-10-03T01:16:55;100973.44;;;5.93;100.00
50380;BME280;37474;59.468;18.040;2022-10-03T01:19:39;100973.91;;;6.04;100.00
50380;BME280;37474;59.468;18.040;2022-10-03T01:22:34;100981.59;;;6.07;100.00
50380;BME280;37474;59.468;18.040;2022-10-03T01:25:11;100973.53;;;6.14;100.00
50380;BME280;37474;59.468;18.040;2022-10-03T01:27:54;100974.31;;;6.16;100.00
50380;BME280;37474;59.468;18.040;2022-10-03T01:30:49;100975.66;;;6.03;100.00
50380;BME280;37474;59.468;18.040;2022-10-03T01:33:24;100986.97;;;6.02;100.00
50380;BME280;37474;59.468;18.040;2022-10-03T01:36:01;100989.13;;;6.14;100.00
50380;BME280;37474;59.468;18.040;2022-10-03T01:38:40;100987.25;;;6.18;100.00
50380;BME280;37474;59.468;18.040;2022-10-03T01:41:16;100987.09;;;6.22;100.00
50380;BME280;37474;59.468;18.040;2022-10-03T01:43:54;100994.47;;;6.33;100.00
50380;BME280;37474;59.468;18.040;2022-10-03T01:46:34;100995.94;;;6.40;100.00
50380;BME280;37474;59.468;18.040;2022-10-03T01:49:10;100999.69;;;6.33;100.00
50380;BME280;37474;59.468;18.040;2022-10-03T01:51:48;101002.69;;;6.22;100.00
50380;BME280;37474;59.468;18.040;2022-10-03T01:54:29;101003.75;;;6.17;100.00
50380;BME280;37474;59.468;18.040;2022-10-03T01:57:09;101010.66;;;6.18;100.00
50380;BME280;37474;59.468;18.040;2022-10-03T01:59:46;101010.13;;;6.08;100.00
50380;BME280;37474;59.468;18.040;2022-10-03T02:02:27;100997.19;;;6.07;100.00
50380;BME280;37474;59.468;18.040;2022-10-03T02:05:06;101009.19;;;6.11;100.00
50380;BME280;37474;59.468;18.040;2022-10-03T02:07:41;101004.63;;;6.17;100.00
50380;BME280;37474;59.468;18.040;2022-10-03T02:10:21;101015.13;;;6.14;100.00
50380;BME280;37474;59.468;18.040;2022-10-03T02:12:59;101003.72;;;6.18;100.00
50380;BME280;37474;59.468;18.040;2022-10-03T02:15:41;101012.19;;;6.23;100.00
50380;BME280;37474;59.468;18.040;2022-10-03T02:18:17;101012.84;;;6.29;100.00
50380;BME280;37474;59.468;18.040;2022-10-03T02:21:07;101014.56;;;6.30;100.00
50380;BME280;37474;59.468;18.040;2022-10-03T02:23:41;101016.34;;;6.28;100.00
50380;BME280;37474;59.468;18.040;2022-10-03T02:29:38;101012.63;;;6.35;100.00
50380;BME280;37474;59.468;18.040;2022-10-03T02:38:45;101026.28;;;6.18;100.00
50380;BME280;37474;59.468;18.040;2022-10-03T02:41:59;101027.28;;;6.37;100.00
50380;BME280;37474;59.468;18.040;2022-10-03T02:44:52;101020.16;;;6.42;100.00
50380;BME280;37474;59.468;18.040;2022-10-03T02:47:41;101020.97;;;6.21;100.00
50380;BME280;37474;59.468;18.040;2022-10-03T02:50:59;101026.53;;;6.34;100.00
50380;BME280;37474;59.468;18.040;2022-10-03T02:53:47;101030.97;;;6.32;100.00
50380;BME280;37474;59.468;18.040;2022-10-03T02:56:53;101021.44;;;6.07;100.00
50380;BME280;37474;59.468;18.040;2022-10-03T03:00:05;101022.97;;;6.13;100.00
50380;BME280;37474;59.468;18.040;2022-10-03T03:06:10;101029.56;;;5.98;100.00
50380;BME280;37474;59.468;18.040;2022-10-03T03:09:01;101026.44;;;5.87;100.00
50380;BME280;37474;59.468;18.040;2022-10-03T03:15:11;101031.09;;;5.77;100.00
50380;BME280;37474;59.468;18.040;2022-10-03T03:17:55;101037.69;;;5.89;100.00
50380;BME280;37474;59.468;18.040;2022-10-03T03:20:40;101043.47;;;5.97;100.00
50380;BME280;37474;59.468;18.040;2022-10-03T03:23:33;101034.19;;;5.88;100.00
50380;BME280;37474;59.468;18.040;2022-10-03T03:26:20;101035.47;;;5.77;100.00
50380;BME280;37474;59.468;18.040;2022-10-03T03:29:03;101040.16;;;5.92;100.00
50380;BME280;37474;59.468;18.040;2022-10-03T03:31:43;101043.84;;;5.85;100.00
50380;BME280;37474;59.468;18.040;2022-10-03T03:34:19;101043.34;;;6.00;100.00
50380;BME280;37474;59.468;18.040;2022-10-03T03:36:57;101051.53;;;5.89;100.00
50380;BME280;37474;59.468;18.040;2022-10-03T03:39:50;101048.03;;;5.90;100.00
50380;BME280;37474;59.468;18.040;2022-10-03T03:42:36;101051.47;;;5.91;100.00
50380;BME280;37474;59.468;18.040;2022-10-03T03:45:27;101051.31;;;5.96;100.00
50380;BME280;37474;59.468;18.040;2022-10-03T03:48:13;101045.06;;;5.48;100.00
50380;BME280;37474;59.468;18.040;2022-10-03T03:50:55;101061.72;;;5.41;100.00
50380;BME280;37474;59.468;18.040;2022-10-03T03:53:44;101057.78;;;5.56;100.00
50380;BME280;37474;59.468;18.040;2022-10-03T03:56:40;101058.44;;;5.63;100.00
50380;BME280;37474;59.468;18.040;2022-10-03T03:59:23;101063.38;;;5.17;100.00
50380;BME280;37474;59.468;18.040;2022-10-03T04:02:05;101063.69;;;5.07;100.00
50380;BME280;37474;59.468;18.040;2022-10-03T04:04:47;101057.22;;;5.20;100.00
50380;BME280;37474;59.468;18.040;2022-10-03T04:07:26;101064.38;;;5.40;100.00
50380;BME280;37474;59.468;18.040;2022-10-03T04:10:14;101066.50;;;5.27;100.00
50380;BME280;37474;59.468;18.040;2022-10-03T04:12:53;101074.34;;;5.25;100.00
50380;BME280;37474;59.468;18.040;2022-10-03T04:15:48;101076.50;;;5.13;100.00
50380;BME280;37474;59.468;18.040;2022-10-03T04:18:30;101073.81;;;5.16;100.00
50380;BME280;37474;59.468;18.040;2022-10-03T04:24:29;101083.75;;;4.72;100.00
50380;BME280;37474;59.468;18.040;2022-10-03T04:27:17;101082.81;;;4.75;100.00
50380;BME280;37474;59.468;18.040;2022-10-03T04:29:58;101083.41;;;4.53;100.00
50380;BME280;37474;59.468;18.040;2022-10-03T04:32:56;101091.91;;;4.58;100.00
50380;BME280;37474;59.468;18.040;2022-10-03T04:35:55;101096.19;;;4.59;100.00
50380;BME280;37474;59.468;18.040;2022-10-03T04:38:42;101100.09;;;4.43;100.00
50380;BME280;37474;59.468;18.040;2022-10-03T04:41:21;101105.41;;;4.39;100.00
50380;BME280;37474;59.468;18.040;2022-10-03T04:44:01;101097.69;;;4.68;100.00
50380;BME280;37474;59.468;18.040;2022-10-03T04:46:35;101102.78;;;4.71;100.00
50380;BME280;37474;59.468;18.040;2022-10-03T04:49:17;101101.19;;;4.67;100.00
50380;BME280;37474;59.468;18.040;2022-10-03T04:51:50;101104.75;;;4.63;100.00
50380;BME280;37474;59.468;18.040;2022-10-03T04:54:28;101112.19;;;4.75;100.00
50380;BME280;37474;59.468;18.040;2022-10-03T04:57:09;101106.66;;;4.56;100.00
50380;BME280;37474;59.468;18.040;2022-10-03T04:59:49;101108.50;;;4.53;100.00
50380;BME280;37474;59.468;18.040;2022-10-03T05:02:26;101109.38;;;4.52;100.00
50380;BME280;37474;59.468;18.040;2022-10-03T05:05:28;101108.41;;;4.56;100.00
50380;BME280;37474;59.468;18.040;2022-10-03T05:08:05;101102.34;;;4.24;100.00
50380;BME280;37474;59.468;18.040;2022-10-03T05:10:50;101113.09;;;4.11;100.00
50380;BME280;37474;59.468;18.040;2022-10-03T05:13:35;101111.81;;;3.93;100.00
50380;BME280;37474;59.468;18.040;2022-10-03T05:16:18;101125.28;;;4.07;100.00
50380;BME280;37474;59.468;18.040;2022-10-03T05:18:49;101130.75;;;3.95;100.00
50380;BME280;37474;59.468;18.040;2022-10-03T05:21:30;101128.19;;;3.93;100.00
50380;BME280;37474;59.468;18.040;2022-10-03T05:24:10;101128.28;;;3.90;100.00
50380;BME280;37474;59.468;18.040;2022-10-03T05:26:48;101128.34;;;3.87;100.00
50380;BME280;37474;59.468;18.040;2022-10-03T05:29:29;101128.91;;;4.00;100.00
50380;BME280;37474;59.468;18.040;2022-10-03T05:32:12;101133.53;;;4.21;100.00
50380;BME280;37474;59.468;18.040;2022-10-03T05:35:05;101125.69;;;4.23;100.00
50380;BME280;37474;59.468;18.040;2022-10-03T05:41:02;101120.59;;;4.20;100.00
50380;BME280;37474;59.468;18.040;2022-10-03T05:43:54;101131.16;;;4.14;100.00
50380;BME280;37474;59.468;18.040;2022-10-03T05:46:38;101127.78;;;4.43;100.00
50380;BME280;37474;59.468;18.040;2022-10-03T05:49:30;101128.19;;;4.60;100.00
50380;BME280;37474;59.468;18.040;2022-10-03T05:52:33;101128.31;;;4.86;100.00
50380;BME280;37474;59.468;18.040;2022-10-03T05:55:28;101138.34;;;4.99;100.00
50380;BME280;37474;59.468;18.040;2022-10-03T06:01:23;101129.41;;;5.09;100.00
50380;BME280;37474;59.468;18.040;2022-10-03T06:04:11;101133.53;;;5.16;100.00
50380;BME280;37474;59.468;18.040;2022-10-03T06:06:51;101132.22;;;5.01;100.00
50380;BME280;37474;59.468;18.040;2022-10-03T06:09:41;101138.47;;;4.94;100.00
50380;BME280;37474;59.468;18.040;2022-10-03T06:12:19;101132.97;;;5.05;100.00
50380;BME280;37474;59.468;18.040;2022-10-03T06:15:15;101136.81;;;5.21;100.00
50380;BME280;37474;59.468;18.040;2022-10-03T06:18:00;101125.44;;;5.25;100.00
50380;BME280;37474;59.468;18.040;2022-10-03T06:20:53;101126.00;;;5.07;100.00
50380;BME280;37474;59.468;18.040;2022-10-03T06:23:57;101140.50;;;5.42;100.00
50380;BME280;37474;59.468;18.040;2022-10-03T06:26:54;101132.81;;;5.67;100.00
50380;BME280;37474;59.468;18.040;2022-10-03T06:33:04;101151.38;;;5.54;100.00
50380;BME280;37474;59.468;18.040;2022-10-03T06:36:08;101159.66;;;5.67;100.00
50380;BME280;37474;59.468;18.040;2022-10-03T06:44:46;101166.47;;;5.99;100.00
50380;BME280;37474;59.468;18.040;2022-10-03T06:47:29;101171.47;;;6.30;100.00
50380;BME280;37474;59.468;18.040;2022-10-03T06:56:23;101167.88;;;7.31;100.00
50380;BME280;37474;59.468;18.040;2022-10-03T06:59:16;101166.56;;;7.42;100.00
50380;BME280;37474;59.468;18.040;2022-10-03T07:02:10;101156.41;;;7.80;100.00
50380;BME280;37474;59.468;18.040;2022-10-03T07:14:02;101176.47;;;8.42;100.00
50380;BME280;37474;59.468;18.040;2022-10-03T07:16:59;101175.97;;;8.32;100.00
50380;BME280;37474;59.468;18.040;2022-10-03T07:19:48;101176.31;;;8.25;100.00
50380;BME280;37474;59.468;18.040;2022-10-03T07:28:53;101177.69;;;8.94;100.00
50380;BME280;37474;59.468;18.040;2022-10-03T07:31:35;101179.84;;;8.84;100.00
50380;BME280;37474;59.468;18.040;2022-10-03T07:34:23;101175.78;;;8.98;100.00
50380;BME280;37474;59.468;18.040;2022-10-03T07:37:19;101188.88;;;8.77;100.00
50380;BME280;37474;59.468;18.040;2022-10-03T07:40:38;101183.72;;;9.15;100.00
50380;BME280;37474;59.468;18.040;2022-10-03T07:43:46;101186.34;;;9.52;100.00
50380;BME280;37474;59.468;18.040;2022-10-03T07:46:45;101177.78;;;9.68;100.00
50380;BME280;37474;59.468;18.040;2022-10-03T07:52:50;101179.69;;;9.64;100.00
50380;BME280;37474;59.468;18.040;2022-10-03T07:55:50;101178.59;;;9.87;100.00
50380;BME280;37474;59.468;18.040;2022-10-03T07:58:50;101188.22;;;9.87;100.00
50380;BME280;37474;59.468;18.040;2022-10-03T08:01:51;101183.84;;;10.04;100.00
50380;BME280;37474;59.468;18.040;2022-10-03T08:04:51;101179.31;;;10.08;100.00
50380;BME280;37474;59.468;18.040;2022-10-03T08:07:41;101192.69;;;10.21;100.00
50380;BME280;37474;59.468;18.040;2022-10-03T08:13:46;101179.97;;;10.47;100.00
50380;BME280;37474;59.468;18.040;2022-10-03T08:16:41;101191.13;;;10.68;100.00
50380;BME280;37474;59.468;18.040;2022-10-03T08:19:27;101185.84;;;11.03;100.00
50380;BME280;37474;59.468;18.040;2022-10-03T08:22:10;101192.00;;;11.02;100.00
50380;BME280;37474;59.468;18.040;2022-10-03T08:24:58;101196.94;;;11.08;100.00
50380;BME280;37474;59.468;18.040;2022-10-03T08:27:55;101198.66;;;10.92;100.00
50380;BME280;37474;59.468;18.040;2022-10-03T08:30:39;101198.72;;;11.23;100.00
50380;BME280;37474;59.468;18.040;2022-10-03T08:33:30;101198.84;;;11.37;100.00
50380;BME280;37474;59.468;18.040;2022-10-03T08:39:48;101205.69;;;11.40;100.00
50380;BME280;37474;59.468;18.040;2022-10-03T08:42:49;101206.63;;;11.55;100.00
50380;BME280;37474;59.468;18.040;2022-10-03T08:45:56;101206.13;;;11.64;100.00
50380;BME280;37474;59.468;18.040;2022-10-03T08:48:48;101209.34;;;11.37;100.00
50380;BME280;37474;59.468;18.040;2022-10-03T08:51:44;101198.66;;;11.72;100.00
50380;BME280;37474;59.468;18.040;2022-10-03T09:00:57;101198.28;;;11.15;100.00
50380;BME280;37474;59.468;18.040;2022-10-03T09:03:57;101202.13;;;11.57;100.00
50380;BME280;37474;59.468;18.040;2022-10-03T09:06:59;101209.34;;;11.69;100.00
50380;BME280;37474;59.468;18.040;2022-10-03T09:13:08;101200.66;;;12.30;100.00
50380;BME280;37474;59.468;18.040;2022-10-03T09:16:03;101197.81;;;12.19;100.00
50380;BME280;37474;59.468;18.040;2022-10-03T09:19:01;101198.78;;;12.32;100.00
50380;BME280;37474;59.468;18.040;2022-10-03T09:25:12;101202.03;;;12.21;100.00
50380;BME280;37474;59.468;18.040;2022-10-03T09:28:22;101198.75;;;12.18;100.00
50380;BME280;37474;59.468;18.040;2022-10-03T09:31:09;101186.06;;;12.40;100.00
50380;BME280;37474;59.468;18.040;2022-10-03T09:37:13;101198.88;;;12.89;100.00
50380;BME280;37474;59.468;18.040;2022-10-03T09:46:16;101196.78;;;12.65;100.00
50380;BME280;37474;59.468;18.040;2022-10-03T09:52:09;101191.44;;;12.67;100.00
50380;BME280;37474;59.468;18.040;2022-10-03T09:55:09;101192.31;;;12.82;100.00
50380;BME280;37474;59.468;18.040;2022-10-03T09:57:55;101191.13;;;12.57;100.00
50380;BME280;37474;59.468;18.040;2022-10-03T10:00:38;101188.34;;;12.60;100.00
50380;BME280;37474;59.468;18.040;2022-10-03T10:03:51;101202.25;;;12.32;100.00
50380;BME280;37474;59.468;18.040;2022-10-03T10:06:54;101200.31;;;12.50;100.00
50380;BME280;37474;59.468;18.040;2022-10-03T10:09:41;101193.03;;;12.69;100.00
50380;BME280;37474;59.468;18.040;2022-10-03T10:18:41;101188.19;;;12.92;100.00
50380;BME280;37474;59.468;18.040;2022-10-03T10:24:49;101195.56;;;12.71;100.00
50380;BME280;37474;59.468;18.040;2022-10-03T10:27:53;101196.56;;;12.40;100.00
50380;BME280;37474;59.468;18.040;2022-10-03T10:33:59;101191.44;;;12.67;100.00
50380;BME280;37474;59.468;18.040;2022-10-03T10:37:05;101199.59;;;12.62;100.00
50380;BME280;37474;59.468;18.040;2022-10-03T10:46:17;101192.50;;;12.78;100.00
50380;BME280;37474;59.468;18.040;2022-10-03T10:49:34;101197.16;;;12.45;100.00
50380;BME280;37474;59.468;18.040;2022-10-03T10:52:32;101197.69;;;12.50;100.00
50380;BME280;37474;59.468;18.040;2022-10-03T10:59:17;101202.75;;;12.39;100.00
50380;BME280;37474;59.468;18.040;2022-10-03T11:02:33;101198.78;;;12.32;100.00
50380;BME280;37474;59.468;18.040;2022-10-03T11:24:24;101194.22;;;12.35;100.00
50380;BME280;37474;59.468;18.040;2022-10-03T11:27:36;101199.19;;;12.40;100.00
50380;BME280;37474;59.468;18.040;2022-10-03T11:30:23;101194.53;;;12.45;100.00
50380;BME280;37474;59.468;18.040;2022-10-03T11:33:30;101194.69;;;12.42;100.00
50380;BME280;37474;59.468;18.040;2022-10-03T11:36:42;101205.16;;;12.28;100.00
50380;BME280;37474;59.468;18.040;2022-10-03T11:39:21;101200.00;;;12.26;100.00
50380;BME280;37474;59.468;18.040;2022-10-03T11:41:59;101206.75;;;12.30;100.00
50380;BME280;37474;59.468;18.040;2022-10-03T11:44:31;101204.53;;;12.38;100.00
50380;BME280;37474;59.468;18.040;2022-10-03T11:47:16;101203.69;;;12.38;100.00
50380;BME280;37474;59.468;18.040;2022-10-03T11:50:12;101203.88;;;12.35;100.00
50380;BME280;37474;59.468;18.040;2022-10-03T11:52:53;101206.06;;;12.42;100.00
50380;BME280;37474;59.468;18.040;2022-10-03T11:55:32;101204.41;;;12.26;100.00
50380;BME280;37474;59.468;18.040;2022-10-03T11:58:13;101201.31;;;12.33;100.00
50380;BME280;37474;59.468;18.040;2022-10-03T12:00:54;101193.94;;;12.40;100.00
50380;BME280;37474;59.468;18.040;2022-10-03T12:03:30;101210.72;;;12.37;100.00
50380;BME280;37474;59.468;18.040;2022-10-03T12:06:09;101207.91;;;12.40;100.00
50380;BME280;37474;59.468;18.040;2022-10-03T12:09:11;101208.19;;;12.50;100.00
50380;BME280;37474;59.468;18.040;2022-10-03T12:11:48;101206.97;;;12.41;100.00
50380;BME280;37474;59.468;18.040;2022-10-03T12:14:25;101208.19;;;12.36;100.00
50380;BME280;37474;59.468;18.040;2022-10-03T12:17:03;101202.09;;;12.35;100.00
50380;BME280;37474;59.468;18.040;2022-10-03T12:19:39;101202.38;;;12.15;100.00
50380;BME280;37474;59.468;18.040;2022-10-03T12:22:20;101197.00;;;12.32;100.00
50380;BME280;37474;59.468;18.040;2022-10-03T12:24:52;101202.94;;;12.50;100.00
50380;BME280;37474;59.468;18.040;2022-10-03T12:27:38;101197.50;;;12.53;100.00
50380;BME280;37474;59.468;18.040;2022-10-03T12:30:13;101208.94;;;12.38;100.00
50380;BME280;37474;59.468;18.040;2022-10-03T12:32:52;101207.78;;;12.28;100.00
50380;BME280;37474;59.468;18.040;2022-10-03T12:35:37;101198.75;;;12.18;100.00
50380;BME280;37474;59.468;18.040;2022-10-03T12:38:28;101213.56;;;12.19;100.00
50380;BME280;37474;59.468;18.040;2022-10-03T12:41:10;101211.94;;;12.32;100.00
50380;BME280;37474;59.468;18.040;2022-10-03T12:43:54;101209.97;;;12.35;100.00
50380;BME280;37474;59.468;18.040;2022-10-03T12:46:39;101207.91;;;12.10;100.00
50380;BME280;37474;59.468;18.040;2022-10-03T12:49:15;101215.09;;;12.07;100.00
50380;BME280;37474;59.468;18.040;2022-10-03T12:51:53;101208.50;;;12.00;100.00
50380;BME280;37474;59.468;18.040;2022-10-03T12:54:41;101212.97;;;12.14;100.00
50380;BME280;37474;59.468;18.040;2022-10-03T12:57:38;101206.38;;;12.06;100.00
50380;BME280;37474;59.468;18.040;2022-10-03T13:00:17;101208.34;;;12.03;100.00
50380;BME280;37474;59.468;18.040;2022-10-03T13:02:58;101198.69;;;12.03;100.00
50380;BME280;37474;59.468;18.040;2022-10-03T13:05:38;101198.09;;;11.98;100.00
50380;BME280;37474;59.468;18.040;2022-10-03T13:08:35;101199.19;;;11.94;100.00
50380;BME280;37474;59.468;18.040;2022-10-03T13:11:20;101202.69;;;11.79;100.00
50380;BME280;37474;59.468;18.040;2022-10-03T13:14:03;101189.22;;;11.85;100.00
50380;BME280;37474;59.468;18.040;2022-10-03T13:16:34;101191.31;;;11.78;100.00
50380;BME280;37474;59.468;18.040;2022-10-03T13:19:10;101197.56;;;11.76;100.00
50380;BME280;37474;59.468;18.040;2022-10-03T13:21:51;101191.66;;;11.88;100.00
50380;BME280;37474;59.468;18.040;2022-10-03T13:24:29;101199.75;;;11.68;100.00
50380;BME280;37474;59.468;18.040;2022-10-03T13:27:09;101208.91;;;11.61;100.00
50380;BME280;37474;59.468;18.040;2022-10-03T13:29:46;101199.34;;;11.60;100.00
50380;BME280;37474;59.468;18.040;2022-10-03T13:32:19;101209.34;;;11.69;100.00
50380;BME280;37474;59.468;18.040;2022-10-03T13:35:20;101202.72;;;11.62;100.00
50380;BME280;37474;59.468;18.040;2022-10-03T13:41:27;101197.13;;;11.68;100.00
50380;BME280;37474;59.468;18.040;2022-10-03T13:44:02;101195.88;;;11.59;100.00
50380;BME280;37474;59.468;18.040;2022-10-03T13:46:41;101194.84;;;11.46;100.00
50380;BME280;37474;59.468;18.040;2022-10-03T13:49:15;101187.66;;;11.34;100.00
50380;BME280;37474;59.468;18.040;2022-10-03T13:51:52;101191.47;;;11.28;100.00
50380;BME280;37474;59.468;18.040;2022-10-03T13:54:42;101185.78;;;11.20;100.00
50380;BME280;37474;59.468;18.040;2022-10-03T13:57:17;101183.09;;;11.22;100.00
50380;BME280;37474;59.468;18.040;2022-10-03T14:00:03;101192.06;;;11.33;100.00
50380;BME280;37474;59.468;18.040;2022-10-03T14:02:57;101197.72;;;11.26;100.00
50380;BME280;37474;59.468;18.040;2022-10-03T14:05:57;101195.13;;;11.41;100.00
50380;BME280;37474;59.468;18.040;2022-10-03T14:11:35;101194.94;;;11.60;100.00
50380;BME280;37474;59.468;18.040;2022-10-03T14:14:33;101188.69;;;11.63;100.00
50380;BME280;37474;59.468;18.040;2022-10-03T14:17:10;101188.50;;;11.66;100.00
50380;BME280;37474;59.468;18.040;2022-10-03T14:19:50;101176.66;;;11.74;100.00
50380;BME280;37474;59.468;18.040;2022-10-03T14:22:31;101178.00;;;11.66;100.00
50380;BME280;37474;59.468;18.040;2022-10-03T14:25:17;101176.75;;;11.73;100.00
50380;BME280;37474;59.468;18.040;2022-10-03T14:27:50;101173.28;;;11.88;100.00
50380;BME280;37474;59.468;18.040;2022-10-03T14:30:21;101172.19;;;11.92;100.00
50380;BME280;37474;59.468;18.040;2022-10-03T14:33:03;101169.72;;;11.89;100.00
50380;BME280;37474;59.468;18.040;2022-10-03T14:35:36;101163.91;;;11.84;100.00
50380;BME280;37474;59.468;18.040;2022-10-03T14:38:17;101168.69;;;11.76;100.00
50380;BME280;37474;59.468;18.040;2022-10-03T14:40:56;101160.81;;;11.76;100.00
50380;BME280;37474;59.468;18.040;2022-10-03T14:43:34;101164.63;;;11.70;100.00
50380;BME280;37474;59.468;18.040;2022-10-03T14:46:05;101162.34;;;11.64;100.00
50380;BME280;37474;59.468;18.040;2022-10-03T14:48:40;101154.41;;;11.66;100.00
50380;BME280;37474;59.468;18.040;2022-10-03T14:51:14;101169.63;;;11.59;100.00
50380;BME280;37474;59.468;18.040;2022-10-03T14:53:51;101161.84;;;11.73;100.00
50380;BME280;37474;59.468;18.040;2022-10-03T14:56:21;101157.19;;;11.63;100.00
50380;BME280;37474;59.468;18.040;2022-10-03T14:58:54;101162.53;;;11.61;100.00
50380;BME280;37474;59.468;18.040;2022-10-03T15:01:24;101168.53;;;11.63;100.00
50380;BME280;37474;59.468;18.040;2022-10-03T15:03:59;101167.09;;;11.58;100.00
50380;BME280;37474;59.468;18.040;2022-10-03T15:06:48;101169.06;;;11.38;100.00
50380;BME280;37474;59.468;18.040;2022-10-03T15:09:23;101170.25;;;11.33;100.00
50380;BME280;37474;59.468;18.040;2022-10-03T15:11:54;101176.16;;;11.36;100.00
50380;BME280;37474;59.468;18.040;2022-10-03T15:14:30;101169.56;;;11.29;100.00
50380;BME280;37474;59.468;18.040;2022-10-03T15:17:03;101177.19;;;11.34;100.00
50380;BME280;37474;59.468;18.040;2022-10-03T15:19:37;101171.09;;;11.33;100.00
50380;BME280;37474;59.468;18.040;2022-10-03T15:22:23;101167.44;;;11.20;100.00
50380;BME280;37474;59.468;18.040;2022-10-03T15:24:58;101174.53;;;11.18;100.00
50380;BME280;37474;59.468;18.040;2022-10-03T15:27:28;101174.13;;;11.26;100.00
50380;BME280;37474;59.468;18.040;2022-10-03T15:30:00;101166.41;;;11.23;100.00
50380;BME280;37474;59.468;18.040;2022-10-03T15:32:35;101171.16;;;11.16;100.00
50380;BME280;37474;59.468;18.040;2022-10-03T15:35:07;101172.81;;;11.01;100.00
50380;BME280;37474;59.468;18.040;2022-10-03T15:37:39;101175.09;;;11.07;100.00
50380;BME280;37474;59.468;18.040;2022-10-03T15:40:20;101177.97;;;11.03;100.00
50380;BME280;37474;59.468;18.040;2022-10-03T15:42:54;101170.66;;;10.92;100.00
50380;BME280;37474;59.468;18.040;2022-10-03T15:45:30;101169.97;;;10.89;100.00
50380;BME280;37474;59.468;18.040;2022-10-03T15:48:04;101173.84;;;10.81;100.00
50380;BME280;37474;59.468;18.040;2022-10-03T15:50:38;101167.75;;;10.81;100.00
50380;BME280;37474;59.468;18.040;2022-10-03T15:53:14;101171.41;;;10.61;100.00
50380;BME280;37474;59.468;18.040;2022-10-03T15:56:09;101185.13;;;10.49;100.00
50380;BME280;37474;59.468;18.040;2022-10-03T15:58:44;101184.81;;;10.55;100.00
50380;BME280;37474;59.468;18.040;2022-10-03T16:01:17;101184.47;;;10.28;100.00
50380;BME280;37474;59.468;18.040;2022-10-03T16:03:49;101191.38;;;10.29;100.00
50380;BME280;37474;59.468;18.040;2022-10-03T16:06:22;101187.03;;;10.11;100.00
50380;BME280;37474;59.468;18.040;2022-10-03T16:08:57;101190.78;;;10.05;100.00
50380;BME280;37474;59.468;18.040;2022-10-03T16:11:33;101193.88;;;9.77;100.00
50380;BME280;37474;59.468;18.040;2022-10-03T16:14:15;101195.31;;;9.66;100.00
50380;BME280;37474;59.468;18.040;2022-10-03T16:16:47;101191.19;;;9.41;100.00
50380;BME280;37474;59.468;18.040;2022-10-03T16:19:25;101190.94;;;9.29;100.00
50380;BME280;37474;59.468;18.040;2022-10-03T16:22:04;101190.50;;;9.19;100.00
50380;BME280;37474;59.468;18.040;2022-10-03T16:24:42;101187.25;;;9.14;100.00
50380;BME280;37474;59.468;18.040;2022-10-03T16:27:16;101184.69;;;8.94;100.00
50380;BME280;37474;59.468;18.040;2022-10-03T16:29:52;101179.28;;;8.78;100.00
50380;BME280;37474;59.468;18.040;2022-10-03T16:32:26;101179.59;;;8.70;100.00